createdAt,value
2018-03-24T00:01:35.197Z,19.80
2018-03-24T00:04:03.241Z,19.70
2018-03-24T00:06:31.301Z,19.70
2018-03-24T00:08:59.375Z,19.70
2018-03-24T00:11:27.437Z,19.70
2018-03-24T00:13:56.250Z,19.60
2018-03-24T00:16:24.348Z,19.60
2018-03-24T00:18:52.406Z,19.60
2018-03-24T00:21:20.453Z,19.60
2018-03-24T00:23:48.505Z,19.60
2018-03-24T00:26:16.580Z,19.60
2018-03-24T00:28:44.628Z,19.60
2018-03-24T00:31:12.713Z,19.60
2018-03-24T00:33:40.757Z,19.60
2018-03-24T00:36:08.800Z,19.60
2018-03-24T00:38:36.864Z,19.50
2018-03-24T00:41:04.910Z,19.50
2018-03-24T00:43:32.993Z,19.50
2018-03-24T00:46:01.042Z,19.50
2018-03-24T00:48:29.093Z,19.50
2018-03-24T00:50:57.934Z,19.40
2018-03-24T00:53:25.990Z,19.40
2018-03-24T00:55:54.063Z,19.40
2018-03-24T00:58:22.876Z,19.40
2018-03-24T01:00:50.929Z,19.40
2018-03-24T01:03:19.798Z,19.40
2018-03-24T01:05:47.854Z,19.40
2018-03-24T01:08:15.942Z,19.40
2018-03-24T01:10:43.996Z,19.40
2018-03-24T01:13:12.834Z,19.30
2018-03-24T01:15:57.262Z,19.30
2018-03-24T01:18:29.862Z,19.30
2018-03-24T01:20:58.840Z,19.30
2018-03-24T01:23:32.429Z,19.30
2018-03-24T01:26:04.411Z,19.30
2018-03-24T01:28:32.462Z,19.20
2018-03-24T01:31:18.033Z,19.20
2018-03-24T01:33:51.553Z,19.20
2018-03-24T01:36:25.022Z,19.20
2018-03-24T01:38:56.231Z,19.20
2018-03-24T01:41:29.635Z,19.20
2018-03-24T01:43:57.709Z,19.20
2018-03-24T01:46:25.765Z,19.20
2018-03-24T01:48:53.859Z,19.10
2018-03-24T01:51:21.918Z,19.10
2018-03-24T01:53:50.008Z,19.10
2018-03-24T01:56:18.053Z,19.10
2018-03-24T01:58:46.341Z,19.10
2018-03-24T02:01:14.383Z,19.10
2018-03-24T02:03:42.441Z,19.10
2018-03-24T02:06:10.519Z,19.10
2018-03-24T02:08:38.589Z,19.10
2018-03-24T02:11:06.622Z,19.00
2018-03-24T02:13:34.679Z,19.00
2018-03-24T02:16:02.734Z,19.00
2018-03-24T02:18:30.801Z,19.00
2018-03-24T02:21:02.660Z,19.00
2018-03-24T02:23:30.732Z,19.00
2018-03-24T02:25:58.782Z,19.00
2018-03-24T02:28:26.832Z,18.90
2018-03-24T02:30:54.900Z,18.90
2018-03-24T02:33:22.948Z,18.90
2018-03-24T02:35:51.031Z,18.90
2018-03-24T02:38:19.084Z,18.90
2018-03-24T02:40:47.130Z,18.90
2018-03-24T02:43:15.194Z,18.90
2018-03-24T02:45:43.234Z,18.90
2018-03-24T02:48:11.364Z,18.90
2018-03-24T02:50:39.500Z,18.80
2018-03-24T02:53:07.545Z,18.80
2018-03-24T02:55:35.590Z,18.80
2018-03-24T02:58:03.627Z,18.80
2018-03-24T03:00:31.676Z,18.80
2018-03-24T03:02:59.740Z,18.80
2018-03-24T03:05:27.795Z,18.80
2018-03-24T03:07:55.925Z,18.80
2018-03-24T03:10:23.966Z,18.80
2018-03-24T03:12:52.024Z,18.80
2018-03-24T03:15:20.108Z,18.70
2018-03-24T03:17:48.162Z,18.70
2018-03-24T03:20:16.208Z,18.70
2018-03-24T03:22:44.270Z,18.70
2018-03-24T03:25:12.341Z,18.70
2018-03-24T03:27:40.415Z,18.70
2018-03-24T03:33:13.961Z,18.60
2018-03-24T03:35:42.021Z,18.60
2018-03-24T03:38:10.047Z,18.60
2018-03-24T03:40:38.099Z,18.60
2018-03-24T03:43:06.171Z,18.60
2018-03-24T03:45:34.251Z,18.60
2018-03-24T03:48:02.321Z,18.60
2018-03-24T03:50:30.357Z,18.60
2018-03-24T03:52:58.402Z,18.60
2018-03-24T03:55:26.438Z,18.60
2018-03-24T03:57:54.505Z,18.60
2018-03-24T04:00:22.819Z,18.50
2018-03-24T04:02:51.637Z,18.50
2018-03-24T04:05:19.673Z,18.50
2018-03-24T04:07:47.735Z,18.50
2018-03-24T04:10:15.804Z,18.50
2018-03-24T04:12:43.869Z,18.50
2018-03-24T04:15:11.910Z,18.50
2018-03-24T04:17:39.971Z,18.50
2018-03-24T04:20:07.992Z,18.50
2018-03-24T04:22:36.071Z,18.40
2018-03-24T04:25:04.880Z,18.40
2018-03-24T04:27:32.924Z,18.40
2018-03-24T04:30:00.958Z,18.40
2018-03-24T04:32:29.030Z,18.40
2018-03-24T04:34:57.098Z,18.50
2018-03-24T04:37:25.151Z,18.60
2018-03-24T04:39:53.230Z,18.80
2018-03-24T04:42:21.294Z,19.10
2018-03-24T04:44:49.356Z,19.30
2018-03-24T04:47:17.422Z,19.50
2018-03-24T04:49:45.500Z,19.70
2018-03-24T04:52:13.556Z,19.80
2018-03-24T04:54:41.593Z,19.90
2018-03-24T04:57:09.643Z,20.00
2018-03-24T04:59:37.692Z,20.10
2018-03-24T05:02:05.761Z,20.20
2018-03-24T05:04:34.124Z,20.30
2018-03-24T05:07:02.173Z,20.40
2018-03-24T05:09:30.243Z,20.50
2018-03-24T05:11:58.285Z,20.50
2018-03-24T05:14:26.329Z,20.60
2018-03-24T05:16:54.386Z,20.60
2018-03-24T05:19:22.417Z,20.70
2018-03-24T05:21:50.479Z,20.60
2018-03-24T05:24:18.513Z,20.70
2018-03-24T05:26:46.559Z,20.70
2018-03-24T05:29:14.617Z,20.80
2018-03-24T05:31:42.671Z,20.80
2018-03-24T05:34:10.753Z,20.80
2018-03-24T05:36:38.806Z,20.80
2018-03-24T05:39:06.892Z,20.80
2018-03-24T05:41:34.908Z,20.80
2018-03-24T05:44:02.947Z,20.90
2018-03-24T05:46:31.016Z,21.00
2018-03-24T05:48:59.077Z,21.10
2018-03-24T05:51:27.121Z,21.00
2018-03-24T05:53:55.183Z,20.90
2018-03-24T05:56:23.244Z,21.00
2018-03-24T05:58:52.070Z,21.10
2018-03-24T06:01:20.148Z,21.00
2018-03-24T06:03:48.207Z,21.10
2018-03-24T06:06:16.252Z,21.10
2018-03-24T06:08:45.081Z,21.20
2018-03-24T06:11:13.160Z,21.20
2018-03-24T06:13:41.200Z,21.30
2018-03-24T06:16:09.276Z,21.30
2018-03-24T06:18:37.316Z,21.30
2018-03-24T06:21:05.373Z,21.30
2018-03-24T06:23:33.456Z,21.20
2018-03-24T06:26:01.505Z,21.30
2018-03-24T06:28:29.551Z,21.30
2018-03-24T06:31:00.825Z,21.30
2018-03-24T06:33:28.892Z,21.40
2018-03-24T06:35:57.690Z,21.40
2018-03-24T06:38:25.743Z,21.40
2018-03-24T06:40:53.790Z,21.40
2018-03-24T06:43:21.937Z,21.30
2018-03-24T06:45:50.010Z,21.10
2018-03-24T06:48:18.066Z,21.00
2018-03-24T06:50:46.230Z,21.00
2018-03-24T06:53:14.301Z,21.00
2018-03-24T06:55:42.332Z,20.80
2018-03-24T06:58:10.361Z,20.50
2018-03-24T07:00:38.441Z,20.30
2018-03-24T07:03:06.487Z,20.20
2018-03-24T07:05:34.547Z,20.20
2018-03-24T07:08:02.597Z,20.00
2018-03-24T07:10:30.675Z,20.00
2018-03-24T07:12:58.753Z,20.10
2018-03-24T07:15:26.808Z,20.10
2018-03-24T07:17:54.907Z,20.00
2018-03-24T07:20:22.946Z,20.00
2018-03-24T07:22:50.999Z,20.00
2018-03-24T07:25:19.063Z,20.00
2018-03-24T07:27:47.932Z,19.90
2018-03-24T07:30:16.752Z,19.90
2018-03-24T07:32:44.816Z,19.90
2018-03-24T07:35:13.621Z,20.00
2018-03-24T07:37:41.663Z,20.00
2018-03-24T07:40:09.736Z,19.90
2018-03-24T07:42:37.912Z,19.90
2018-03-24T07:45:07.490Z,20.00
2018-03-24T07:47:35.609Z,20.00
2018-03-24T07:50:03.633Z,20.00
2018-03-24T07:52:31.686Z,19.90
2018-03-24T07:54:59.744Z,20.00
2018-03-24T07:57:27.808Z,19.90
2018-03-24T07:59:55.853Z,19.90
2018-03-24T08:02:23.896Z,20.00
2018-03-24T08:07:35.517Z,20.10
2018-03-24T08:10:03.602Z,20.10
2018-03-24T08:12:31.669Z,20.10
2018-03-24T08:14:59.737Z,20.10
2018-03-24T08:17:27.807Z,20.00
2018-03-24T08:19:55.892Z,20.00
2018-03-24T08:22:24.124Z,20.00
2018-03-24T08:24:52.226Z,19.90
2018-03-24T08:27:20.260Z,19.90
2018-03-24T08:29:48.510Z,19.90
2018-03-24T08:32:16.598Z,19.90
2018-03-24T08:34:44.654Z,19.80
2018-03-24T08:37:12.716Z,19.80
2018-03-24T08:39:40.816Z,19.80
2018-03-24T08:42:08.864Z,19.80
2018-03-24T08:44:38.423Z,19.90
2018-03-24T08:47:06.519Z,19.90
2018-03-24T08:49:34.577Z,19.80
2018-03-24T08:52:02.635Z,19.90
2018-03-24T08:54:30.694Z,19.90
2018-03-24T08:56:58.748Z,20.10
2018-03-24T08:59:26.844Z,20.10
2018-03-24T09:01:54.893Z,20.20
2018-03-24T09:04:22.982Z,20.30
2018-03-24T09:06:51.045Z,20.40
2018-03-24T09:09:19.147Z,20.40
2018-03-24T09:11:47.207Z,20.50
2018-03-24T09:14:15.273Z,20.50
2018-03-24T09:16:43.353Z,20.50
2018-03-24T09:19:11.449Z,20.60
2018-03-24T09:21:39.505Z,20.70
2018-03-24T09:24:07.567Z,20.80
2018-03-24T09:26:35.617Z,20.90
2018-03-24T09:29:03.745Z,20.80
2018-03-24T09:31:31.850Z,20.90
2018-03-24T09:34:00.670Z,20.80
2018-03-24T09:36:28.726Z,20.80
2018-03-24T09:38:56.990Z,20.80
2018-03-24T09:41:25.045Z,20.70
2018-03-24T09:43:55.695Z,20.70
2018-03-24T09:46:24.516Z,20.70
2018-03-24T09:48:52.554Z,20.70
2018-03-24T09:51:20.654Z,20.60
2018-03-24T09:53:49.473Z,20.70
2018-03-24T09:56:17.546Z,20.60
2018-03-24T09:58:45.642Z,20.60
2018-03-24T10:01:13.723Z,20.60
2018-03-24T10:03:43.282Z,20.60
2018-03-24T10:06:11.364Z,20.60
2018-03-24T10:08:39.480Z,20.60
2018-03-24T10:11:07.562Z,20.60
2018-03-24T10:13:35.622Z,20.60
2018-03-24T10:16:03.690Z,20.70
2018-03-24T10:18:32.548Z,20.60
2018-03-24T10:21:00.623Z,20.60
2018-03-24T10:23:29.100Z,20.60
2018-03-24T10:25:57.148Z,20.60
2018-03-24T10:28:25.219Z,20.60
2018-03-24T10:30:53.306Z,20.60
2018-03-24T10:33:21.361Z,20.70
2018-03-24T10:35:49.476Z,20.70
2018-03-24T10:38:17.628Z,20.70
2018-03-24T10:40:45.700Z,20.70
2018-03-24T10:43:19.287Z,20.60
2018-03-24T10:45:48.139Z,20.60
2018-03-24T10:48:16.210Z,20.60
2018-03-24T10:50:44.283Z,20.70
2018-03-24T10:53:12.329Z,20.70
2018-03-24T10:55:40.379Z,20.70
2018-03-24T10:58:08.490Z,20.80
2018-03-24T11:00:36.549Z,20.80
2018-03-24T11:03:04.614Z,20.80
2018-03-24T11:05:32.667Z,20.80
2018-03-24T11:08:00.729Z,20.80
2018-03-24T11:10:28.799Z,20.80
2018-03-24T11:12:56.853Z,20.80
2018-03-24T11:15:24.961Z,20.80
2018-03-24T11:17:53.015Z,20.80
2018-03-24T11:20:21.075Z,20.80
2018-03-24T11:22:49.119Z,20.90
2018-03-24T11:25:17.185Z,20.90
2018-03-24T11:27:45.272Z,20.90
2018-03-24T11:30:13.367Z,20.90
2018-03-24T11:32:41.425Z,20.80
2018-03-24T11:35:09.500Z,20.80
2018-03-24T11:37:37.560Z,20.80
2018-03-24T11:40:05.614Z,20.80
2018-03-24T11:42:33.658Z,20.90
2018-03-24T11:45:01.734Z,20.90
2018-03-24T11:47:29.803Z,20.90
2018-03-24T11:49:57.852Z,20.90
2018-03-24T11:52:26.700Z,20.80
2018-03-24T11:54:54.949Z,20.80
2018-03-24T11:57:22.999Z,20.80
2018-03-24T11:59:51.076Z,20.90
2018-03-24T12:02:19.125Z,20.90
2018-03-24T12:04:47.208Z,21.00
2018-03-24T12:07:15.256Z,21.00
2018-03-24T12:09:43.335Z,21.00
2018-03-24T12:12:12.144Z,21.00
2018-03-24T12:14:40.190Z,21.00
2018-03-24T12:17:09.014Z,21.10
2018-03-24T12:19:37.070Z,21.00
2018-03-24T12:22:05.185Z,21.10
2018-03-24T12:24:33.237Z,21.10
2018-03-24T12:27:01.760Z,21.10
2018-03-24T12:29:29.827Z,21.10
2018-03-24T12:31:57.925Z,21.10
2018-03-24T12:34:25.992Z,21.10
2018-03-24T12:36:54.025Z,21.10
2018-03-24T12:39:22.874Z,21.10
2018-03-24T12:41:50.962Z,21.10
2018-03-24T12:44:19.051Z,21.10
2018-03-24T12:46:47.107Z,21.20
2018-03-24T12:49:15.187Z,21.20
2018-03-24T12:51:43.287Z,21.20
2018-03-24T12:54:11.370Z,21.20
2018-03-24T12:56:39.414Z,21.10
2018-03-24T12:59:08.236Z,21.00
2018-03-24T13:01:36.291Z,21.00
2018-03-24T13:04:04.331Z,21.10
2018-03-24T13:06:32.387Z,21.10
2018-03-24T13:09:01.211Z,21.20
2018-03-24T13:11:29.272Z,21.20
2018-03-24T13:13:57.405Z,21.10
2018-03-24T13:16:25.440Z,21.20
2018-03-24T13:18:53.524Z,21.20
2018-03-24T13:21:21.574Z,21.20
2018-03-24T13:23:49.628Z,21.20
2018-03-24T13:26:17.674Z,21.20
2018-03-24T13:28:45.745Z,21.20
2018-03-24T13:31:13.797Z,21.20
2018-03-24T13:38:16.696Z,21.20
2018-03-24T13:40:44.797Z,21.20
2018-03-24T13:43:12.864Z,21.20
2018-03-24T13:45:40.929Z,21.20
2018-03-24T13:48:08.984Z,21.20
2018-03-24T13:50:37.047Z,21.20
2018-03-24T13:53:05.085Z,21.20
2018-03-24T13:55:33.153Z,21.20
2018-03-24T13:58:01.192Z,21.20
2018-03-24T14:00:29.256Z,21.30
2018-03-24T14:02:57.316Z,21.30
2018-03-24T14:05:25.386Z,21.30
2018-03-24T14:07:53.443Z,21.30
2018-03-24T14:10:21.487Z,21.30
2018-03-24T14:12:49.557Z,21.30
2018-03-24T14:15:17.612Z,21.30
2018-03-24T14:17:46.415Z,21.30
2018-03-24T14:20:14.497Z,21.30
2018-03-24T14:22:42.565Z,21.30
2018-03-24T14:25:10.644Z,21.30
2018-03-24T14:27:38.703Z,21.30
2018-03-24T14:30:06.760Z,21.30
2018-03-24T14:32:34.836Z,21.30
2018-03-24T14:35:02.898Z,21.20
2018-03-24T14:37:30.946Z,21.10
2018-03-24T14:39:58.989Z,21.00
2018-03-24T14:42:27.049Z,21.00
2018-03-24T14:44:55.099Z,21.00
2018-03-24T14:47:23.151Z,21.10
2018-03-24T14:49:51.180Z,21.00
2018-03-24T14:52:19.215Z,21.10
2018-03-24T14:54:47.384Z,21.10
2018-03-24T14:57:15.523Z,21.10
2018-03-24T14:59:43.663Z,21.10
2018-03-24T15:02:11.737Z,21.10
2018-03-24T15:04:39.819Z,21.10
2018-03-24T15:07:07.875Z,21.10
2018-03-24T15:09:35.933Z,21.20
2018-03-24T15:12:03.966Z,21.20
2018-03-24T15:14:32.095Z,21.30
2018-03-24T15:17:00.930Z,21.30
2018-03-24T15:19:29.002Z,21.30
2018-03-24T15:21:57.058Z,21.40
2018-03-24T15:24:25.139Z,21.40
2018-03-24T15:26:53.170Z,21.40
2018-03-24T15:29:21.259Z,21.40
2018-03-24T15:31:49.352Z,21.40
2018-03-24T15:34:17.404Z,21.50
2018-03-24T15:36:45.467Z,21.50
2018-03-24T15:39:13.523Z,21.50
2018-03-24T15:41:41.594Z,21.50
2018-03-24T15:44:09.642Z,21.50
2018-03-24T15:46:37.712Z,21.50
2018-03-24T15:49:05.776Z,21.60
2018-03-24T15:51:33.835Z,21.60
2018-03-24T15:54:01.926Z,21.60
2018-03-24T15:56:30.000Z,21.60
2018-03-24T15:58:58.039Z,21.60
2018-03-24T16:01:26.136Z,21.60
2018-03-24T16:03:54.192Z,21.60
2018-03-24T16:06:22.255Z,21.60
2018-03-24T16:08:50.310Z,21.70
2018-03-24T16:11:18.384Z,21.70
2018-03-24T16:13:46.449Z,21.70
2018-03-24T16:16:14.490Z,21.70
2018-03-24T16:18:42.877Z,21.70
2018-03-24T16:21:10.959Z,21.70
2018-03-24T16:23:39.042Z,21.70
2018-03-24T16:26:07.114Z,21.80
2018-03-24T16:28:35.173Z,21.70
2018-03-24T16:31:03.213Z,21.70
2018-03-24T16:33:31.270Z,21.80
2018-03-24T16:35:59.355Z,21.80
2018-03-24T16:38:27.431Z,21.80
2018-03-24T16:40:55.469Z,21.90
2018-03-24T16:43:24.295Z,21.70
2018-03-24T16:45:53.151Z,21.60
2018-03-24T16:48:21.211Z,21.60
2018-03-24T16:50:49.307Z,21.60
2018-03-24T16:53:17.359Z,21.60
2018-03-24T16:55:48.569Z,21.60
2018-03-24T16:58:16.632Z,21.70
2018-03-24T17:00:44.842Z,21.80
2018-03-24T17:03:12.883Z,21.80
2018-03-24T17:05:40.928Z,21.90
2018-03-24T17:08:08.988Z,21.90
2018-03-24T17:10:37.060Z,21.90
2018-03-24T17:13:05.103Z,21.90
2018-03-24T17:15:33.155Z,21.80
2018-03-24T17:18:02.008Z,21.90
2018-03-24T17:20:30.057Z,21.90
2018-03-24T17:22:58.121Z,21.80
2018-03-24T17:25:26.182Z,21.90
2018-03-24T17:27:54.330Z,21.90
2018-03-24T17:30:22.375Z,21.70
2018-03-24T17:32:50.471Z,21.70
2018-03-24T17:35:18.568Z,21.70
2018-03-24T17:37:46.631Z,21.80
2018-03-24T17:40:14.683Z,21.70
2018-03-24T17:42:42.747Z,21.70
2018-03-24T17:45:10.809Z,21.80
2018-03-24T17:47:38.907Z,21.90
2018-03-24T17:50:06.948Z,21.90
2018-03-24T17:52:35.424Z,21.90
2018-03-24T17:55:03.478Z,21.90
2018-03-24T17:57:31.702Z,22.00
2018-03-24T17:59:59.742Z,22.00
2018-03-24T18:02:27.867Z,22.00
2018-03-24T18:04:56.244Z,22.00
2018-03-24T18:07:24.295Z,22.00
2018-03-24T18:09:52.362Z,22.00
2018-03-24T18:12:20.428Z,22.00
2018-03-24T18:14:48.511Z,22.00
2018-03-24T18:17:16.575Z,22.00
2018-03-24T18:19:44.669Z,22.00
2018-03-24T18:22:13.941Z,22.00
2018-03-24T18:24:42.017Z,22.00
2018-03-24T18:27:10.199Z,22.00
2018-03-24T18:29:38.291Z,22.00
2018-03-24T18:32:06.371Z,22.00
2018-03-24T18:34:34.443Z,22.10
2018-03-24T18:37:03.269Z,22.10
2018-03-24T18:39:31.323Z,22.00
2018-03-24T18:42:00.135Z,22.10
2018-03-24T18:44:28.312Z,22.10
2018-03-24T18:46:56.728Z,22.10
2018-03-24T18:49:24.804Z,22.10
2018-03-24T18:51:52.874Z,22.10
2018-03-24T18:54:20.949Z,22.10
2018-03-24T18:56:49.015Z,22.10
2018-03-24T18:59:17.110Z,21.90
2018-03-24T19:01:45.192Z,22.00
2018-03-24T19:04:14.007Z,22.00
2018-03-24T19:06:42.045Z,22.00
2018-03-24T19:09:10.133Z,22.00
2018-03-24T19:11:38.188Z,22.10
2018-03-24T19:14:06.998Z,22.10
2018-03-24T19:16:35.050Z,22.10
2018-03-24T19:19:03.879Z,22.10
2018-03-24T19:21:31.932Z,22.10
2018-03-24T19:23:59.996Z,22.10
2018-03-24T19:26:28.080Z,22.10
2018-03-24T19:28:56.126Z,22.20
2018-03-24T19:31:24.981Z,22.20
2018-03-24T19:33:53.074Z,22.20
2018-03-24T19:36:21.930Z,22.20
2018-03-24T19:38:50.001Z,22.20
2018-03-24T19:41:18.114Z,22.20
2018-03-24T19:43:46.188Z,22.20
2018-03-24T19:46:14.266Z,22.20
2018-03-24T19:48:42.323Z,22.20
2018-03-24T19:51:10.405Z,22.20
2018-03-24T19:53:38.504Z,22.20
2018-03-24T19:56:06.599Z,22.20
2018-03-24T19:58:34.664Z,22.10
2018-03-24T20:01:02.718Z,22.20
2018-03-24T20:03:30.799Z,22.20
2018-03-24T20:05:58.898Z,22.20
2018-03-24T20:08:26.970Z,22.20
2018-03-24T20:10:55.008Z,22.20
2018-03-24T20:13:23.068Z,22.20
2018-03-24T20:15:51.136Z,22.30
2018-03-24T20:18:19.251Z,22.30
2018-03-24T20:20:47.320Z,22.20
2018-03-24T20:23:15.575Z,22.30
2018-03-24T20:25:43.612Z,22.30
2018-03-24T20:28:11.743Z,22.30
2018-03-24T20:30:39.827Z,22.20
2018-03-24T20:33:07.907Z,22.20
2018-03-24T20:35:35.953Z,22.30
2018-03-24T20:38:04.006Z,22.30
2018-03-24T20:40:32.067Z,22.30
2018-03-24T20:43:00.890Z,22.30
2018-03-24T20:45:28.990Z,22.30
2018-03-24T20:47:57.080Z,22.30
2018-03-24T20:50:25.139Z,22.30
2018-03-24T20:52:53.192Z,22.30
2018-03-24T20:55:21.261Z,22.30
2018-03-24T20:57:49.343Z,22.30
2018-03-24T21:00:17.420Z,22.30
2018-03-24T21:02:45.494Z,22.30
2018-03-24T21:05:13.556Z,22.30
2018-03-24T21:07:41.644Z,22.20
2018-03-24T21:10:09.726Z,22.20
2018-03-24T21:12:37.809Z,22.20
2018-03-24T21:15:05.868Z,22.10
2018-03-24T21:17:33.920Z,22.10
2018-03-24T21:20:01.982Z,22.10
2018-03-24T21:22:30.040Z,22.10
2018-03-24T21:24:58.102Z,22.10
2018-03-24T21:27:26.229Z,22.00
2018-03-24T21:29:54.304Z,21.90
2018-03-24T21:32:22.369Z,21.70
2018-03-24T21:34:50.460Z,21.80
2018-03-24T21:37:18.550Z,21.90
2018-03-24T21:39:46.621Z,22.00
2018-03-24T21:42:14.670Z,22.10
2018-03-24T21:44:42.765Z,22.10
2018-03-24T21:47:10.816Z,22.20
2018-03-24T21:49:38.877Z,22.20
2018-03-24T21:52:06.925Z,22.20
2018-03-24T21:54:34.999Z,22.20
2018-03-24T21:57:03.075Z,22.20
2018-03-24T21:59:31.249Z,22.20
2018-03-24T22:01:59.317Z,22.20
2018-03-24T22:04:27.365Z,22.20
2018-03-24T22:06:55.394Z,22.20
2018-03-24T22:09:23.453Z,22.20
2018-03-24T22:11:51.495Z,22.20
2018-03-24T22:14:19.588Z,22.20
2018-03-24T22:16:47.639Z,22.10
2018-03-24T22:19:16.474Z,22.10
2018-03-24T22:21:44.561Z,22.10
2018-03-24T22:24:12.609Z,22.10
2018-03-24T22:26:40.698Z,22.10
2018-03-24T22:29:08.756Z,22.10
2018-03-24T22:31:36.816Z,22.10
2018-03-24T22:34:04.976Z,22.10
2018-03-24T22:36:33.021Z,22.10
2018-03-24T22:39:01.069Z,22.10
2018-03-24T22:41:29.120Z,22.10
2018-03-24T22:43:57.949Z,22.00
2018-03-24T22:46:25.986Z,22.00
2018-03-24T22:48:54.038Z,22.00
2018-03-24T22:51:22.143Z,22.00
2018-03-24T22:53:50.225Z,22.00
2018-03-24T22:56:18.273Z,21.90
2018-03-24T22:58:46.558Z,21.90
2018-03-24T23:01:20.082Z,21.90
2018-03-24T23:03:48.152Z,21.90
2018-03-24T23:06:16.220Z,21.90
2018-03-24T23:08:44.287Z,21.80
2018-03-24T23:11:12.331Z,21.80
2018-03-24T23:13:40.372Z,21.80
2018-03-24T23:16:08.440Z,21.80
2018-03-24T23:18:36.523Z,21.80
2018-03-24T23:21:04.579Z,21.70
2018-03-24T23:23:32.650Z,21.70
2018-03-24T23:26:00.699Z,21.70
2018-03-24T23:28:28.760Z,21.70
2018-03-24T23:30:56.808Z,21.70
2018-03-24T23:33:24.849Z,21.60
2018-03-24T23:35:52.904Z,21.60
2018-03-24T23:38:20.941Z,21.60
2018-03-24T23:40:48.985Z,21.60
2018-03-24T23:43:17.045Z,21.60
2018-03-24T23:45:45.098Z,21.60
2018-03-24T23:48:13.133Z,21.50
2018-03-24T23:50:41.196Z,21.50
2018-03-24T23:53:09.265Z,21.50
2018-03-24T23:55:37.343Z,21.50
2018-03-24T23:58:05.429Z,21.50
